sensor_id;sensor_type;location;lat;lon;timestamp;P1;durP1;ratioP1;P2;durP2;ratioP2
61356;SDS011;47227;46.752;23.576;2022-11-20T00:01:54;11.40;;;8.60;;
61356;SDS011;47227;46.752;23.576;2022-11-20T00:33:38;8.60;;;7.40;;
61356;SDS011;47227;46.752;23.576;2022-11-20T00:36:48;9.30;;;7.00;;
61356;SDS011;47227;46.752;23.576;2022-11-20T00:39:59;8.60;;;7.00;;
61356;SDS011;47227;46.752;23.576;2022-11-20T00:43:11;8.80;;;6.90;;
61356;SDS011;47227;46.752;23.576;2022-11-20T00:45:56;9.10;;;7.00;;
61356;SDS011;47227;46.752;23.576;2022-11-20T00:49:14;7.30;;;6.50;;
61356;SDS011;47227;46.752;23.576;2022-11-20T00:52:29;7.30;;;6.40;;
61356;SDS011;47227;46.752;23.576;2022-11-20T00:59:28;6.60;;;6.00;;
61356;SDS011;47227;46.752;23.576;2022-11-20T01:06:50;7.70;;;6.30;;
61356;SDS011;47227;46.752;23.576;2022-11-20T01:10:06;8.20;;;6.80;;
61356;SDS011;47227;46.752;23.576;2022-11-20T01:13:11;7.60;;;6.80;;
61356;SDS011;47227;46.752;23.576;2022-11-20T01:16:55;7.50;;;6.80;;
61356;SDS011;47227;46.752;23.576;2022-11-20T01:20:07;7.00;;;6.30;;
61356;SDS011;47227;46.752;23.576;2022-11-20T01:23:30;7.80;;;6.80;;
61356;SDS011;47227;46.752;23.576;2022-11-20T01:26:09;8.00;;;6.90;;
61356;SDS011;47227;46.752;23.576;2022-11-20T01:29:13;7.70;;;6.90;;
61356;SDS011;47227;46.752;23.576;2022-11-20T01:31:54;8.30;;;7.40;;
61356;SDS011;47227;46.752;23.576;2022-11-20T01:34:44;9.50;;;8.20;;
61356;SDS011;47227;46.752;23.576;2022-11-20T01:38:02;9.00;;;7.70;;
61356;SDS011;47227;46.752;23.576;2022-11-20T01:41:14;9.20;;;7.40;;
61356;SDS011;47227;46.752;23.576;2022-11-20T01:47:44;9.20;;;6.60;;
61356;SDS011;47227;46.752;23.576;2022-11-20T01:50:24;7.50;;;6.80;;
61356;SDS011;47227;46.752;23.576;2022-11-20T01:52:58;8.60;;;6.30;;
61356;SDS011;47227;46.752;23.576;2022-11-20T01:55:55;9.80;;;6.30;;
61356;SDS011;47227;46.752;23.576;2022-11-20T01:59:07;7.90;;;6.30;;
61356;SDS011;47227;46.752;23.576;2022-11-20T02:01:44;6.60;;;5.90;;
61356;SDS011;47227;46.752;23.576;2022-11-20T02:04:56;6.90;;;6.20;;
61356;SDS011;47227;46.752;23.576;2022-11-20T02:08:10;8.00;;;6.50;;
61356;SDS011;47227;46.752;23.576;2022-11-20T02:11:34;9.30;;;7.30;;
61356;SDS011;47227;46.752;23.576;2022-11-20T02:14:12;10.10;;;7.80;;
61356;SDS011;47227;46.752;23.576;2022-11-20T02:17:45;10.90;;;8.50;;
61356;SDS011;47227;46.752;23.576;2022-11-20T02:20:59;12.10;;;8.60;;
61356;SDS011;47227;46.752;23.576;2022-11-20T02:24:27;12.60;;;9.20;;
61356;SDS011;47227;46.752;23.576;2022-11-20T02:28:13;15.20;;;9.90;;
61356;SDS011;47227;46.752;23.576;2022-11-20T02:31:28;11.40;;;8.80;;
61356;SDS011;47227;46.752;23.576;2022-11-20T02:34:49;11.00;;;9.30;;
61356;SDS011;47227;46.752;23.576;2022-11-20T02:38:07;10.90;;;8.70;;
61356;SDS011;47227;46.752;23.576;2022-11-20T02:40:56;9.00;;;8.00;;
61356;SDS011;47227;46.752;23.576;2022-11-20T02:44:43;9.40;;;7.40;;
61356;SDS011;47227;46.752;23.576;2022-11-20T02:47:38;8.60;;;7.20;;
61356;SDS011;47227;46.752;23.576;2022-11-20T02:50:55;8.30;;;7.00;;
61356;SDS011;47227;46.752;23.576;2022-11-20T02:53:25;9.10;;;7.70;;
61356;SDS011;47227;46.752;23.576;2022-11-20T02:55:58;8.80;;;7.90;;
61356;SDS011;47227;46.752;23.576;2022-11-20T02:59:14;7.60;;;6.50;;
61356;SDS011;47227;46.752;23.576;2022-11-20T03:02:23;7.30;;;6.20;;
61356;SDS011;47227;46.752;23.576;2022-11-20T03:04:56;6.50;;;5.30;;
61356;SDS011;47227;46.752;23.576;2022-11-20T03:08:15;5.30;;;4.60;;
61356;SDS011;47227;46.752;23.576;2022-11-20T03:11:29;5.30;;;4.20;;
61356;SDS011;47227;46.752;23.576;2022-11-20T03:14:02;5.30;;;4.60;;
61356;SDS011;47227;46.752;23.576;2022-11-20T03:17:19;4.60;;;4.10;;
61356;SDS011;47227;46.752;23.576;2022-11-20T03:19:52;4.70;;;4.00;;
61356;SDS011;47227;46.752;23.576;2022-11-20T03:25:32;4.50;;;4.00;;
61356;SDS011;47227;46.752;23.576;2022-11-20T03:29:00;4.50;;;3.80;;
61356;SDS011;47227;46.752;23.576;2022-11-20T03:32:03;4.90;;;3.80;;
61356;SDS011;47227;46.752;23.576;2022-11-20T03:35:21;4.10;;;3.60;;
61356;SDS011;47227;46.752;23.576;2022-11-20T03:38:14;3.80;;;3.40;;
61356;SDS011;47227;46.752;23.576;2022-11-20T03:41:03;4.70;;;4.00;;
61356;SDS011;47227;46.752;23.576;2022-11-20T03:44:03;4.80;;;3.70;;
61356;SDS011;47227;46.752;23.576;2022-11-20T03:54:14;3.70;;;3.10;;
61356;SDS011;47227;46.752;23.576;2022-11-20T03:57:04;5.20;;;3.60;;
61356;SDS011;47227;46.752;23.576;2022-11-20T04:00:13;3.60;;;3.00;;
61356;SDS011;47227;46.752;23.576;2022-11-20T04:03:27;3.20;;;2.80;;
61356;SDS011;47227;46.752;23.576;2022-11-20T04:06:27;3.40;;;3.10;;
61356;SDS011;47227;46.752;23.576;2022-11-20T04:10:03;3.70;;;3.20;;
61356;SDS011;47227;46.752;23.576;2022-11-20T04:12:35;3.40;;;3.10;;
61356;SDS011;47227;46.752;23.576;2022-11-20T04:15:07;3.80;;;3.40;;
61356;SDS011;47227;46.752;23.576;2022-11-20T04:17:51;7.80;;;7.00;;
61356;SDS011;47227;46.752;23.576;2022-11-20T04:20:49;4.00;;;3.00;;
61356;SDS011;47227;46.752;23.576;2022-11-20T04:23:58;2.70;;;2.30;;
61356;SDS011;47227;46.752;23.576;2022-11-20T04:26:35;3.30;;;2.20;;
61356;SDS011;47227;46.752;23.576;2022-11-20T04:29:53;2.80;;;2.40;;
61356;SDS011;47227;46.752;23.576;2022-11-20T04:32:20;3.30;;;2.30;;
61356;SDS011;47227;46.752;23.576;2022-11-20T04:35:34;3.10;;;2.00;;
61356;SDS011;47227;46.752;23.576;2022-11-20T04:41:58;3.00;;;1.80;;
61356;SDS011;47227;46.752;23.576;2022-11-20T04:44:51;2.20;;;1.80;;
61356;SDS011;47227;46.752;23.576;2022-11-20T04:47:53;4.00;;;2.20;;
61356;SDS011;47227;46.752;23.576;2022-11-20T04:50:39;2.20;;;1.70;;
61356;SDS011;47227;46.752;23.576;2022-11-20T04:53:51;4.50;;;2.40;;
61356;SDS011;47227;46.752;23.576;2022-11-20T04:56:32;3.10;;;2.30;;
61356;SDS011;47227;46.752;23.576;2022-11-20T04:59:39;2.90;;;2.50;;
61356;SDS011;47227;46.752;23.576;2022-11-20T05:05:35;4.20;;;3.80;;
61356;SDS011;47227;46.752;23.576;2022-11-20T05:34:01;1.90;;;1.40;;
61356;SDS011;47227;46.752;23.576;2022-11-20T05:36:28;1.10;;;1.00;;
61356;SDS011;47227;46.752;23.576;2022-11-20T05:38:58;1.30;;;1.00;;
61356;SDS011;47227;46.752;23.576;2022-11-20T05:41:33;0.90;;;0.70;;
61356;SDS011;47227;46.752;23.576;2022-11-20T05:44:00;0.80;;;0.80;;
61356;SDS011;47227;46.752;23.576;2022-11-20T05:46:27;1.30;;;1.00;;
61356;SDS011;47227;46.752;23.576;2022-11-20T05:49:03;2.00;;;1.70;;
61356;SDS011;47227;46.752;23.576;2022-11-20T05:51:54;1.60;;;1.50;;
61356;SDS011;47227;46.752;23.576;2022-11-20T05:55:31;3.80;;;1.60;;
61356;SDS011;47227;46.752;23.576;2022-11-20T05:58:01;1.90;;;1.70;;
61356;SDS011;47227;46.752;23.576;2022-11-20T06:00:36;2.50;;;2.30;;
61356;SDS011;47227;46.752;23.576;2022-11-20T06:04:08;2.40;;;2.10;;
61356;SDS011;47227;46.752;23.576;2022-11-20T06:07:25;2.90;;;1.90;;
61356;SDS011;47227;46.752;23.576;2022-11-20T06:10:51;2.00;;;1.70;;
61356;SDS011;47227;46.752;23.576;2022-11-20T06:14:04;1.50;;;1.40;;
61356;SDS011;47227;46.752;23.576;2022-11-20T06:17:29;1.50;;;1.40;;
61356;SDS011;47227;46.752;23.576;2022-11-20T06:20:59;1.20;;;1.10;;
61356;SDS011;47227;46.752;23.576;2022-11-20T06:24:25;1.30;;;1.20;;
61356;SDS011;47227;46.752;23.576;2022-11-20T06:27:24;1.30;;;1.10;;
61356;SDS011;47227;46.752;23.576;2022-11-20T06:31:04;2.00;;;1.30;;
61356;SDS011;47227;46.752;23.576;2022-11-20T06:34:33;2.70;;;1.30;;
61356;SDS011;47227;46.752;23.576;2022-11-20T06:37:43;2.00;;;1.60;;
61356;SDS011;47227;46.752;23.576;2022-11-20T06:44:28;2.50;;;1.80;;
61356;SDS011;47227;46.752;23.576;2022-11-20T06:51:02;1.90;;;1.50;;
61356;SDS011;47227;46.752;23.576;2022-11-20T06:54:39;2.90;;;2.00;;
61356;SDS011;47227;46.752;23.576;2022-11-20T07:04:03;2.40;;;2.20;;
61356;SDS011;47227;46.752;23.576;2022-11-20T07:06:58;3.60;;;2.40;;
61356;SDS011;47227;46.752;23.576;2022-11-20T07:13:08;3.00;;;2.30;;
61356;SDS011;47227;46.752;23.576;2022-11-20T07:19:44;2.90;;;2.10;;
61356;SDS011;47227;46.752;23.576;2022-11-20T07:22:36;3.20;;;2.20;;
61356;SDS011;47227;46.752;23.576;2022-11-20T07:26:51;3.00;;;2.10;;
61356;SDS011;47227;46.752;23.576;2022-11-20T07:30:20;2.80;;;2.30;;
61356;SDS011;47227;46.752;23.576;2022-11-20T07:34:09;2.50;;;2.10;;
61356;SDS011;47227;46.752;23.576;2022-11-20T07:37:03;5.80;;;1.60;;
61356;SDS011;47227;46.752;23.576;2022-11-20T07:39:47;1.90;;;1.60;;
61356;SDS011;47227;46.752;23.576;2022-11-20T07:43:18;2.20;;;2.00;;
61356;SDS011;47227;46.752;23.576;2022-11-20T07:46:35;2.20;;;1.50;;
61356;SDS011;47227;46.752;23.576;2022-11-20T07:50:14;1.80;;;1.70;;
61356;SDS011;47227;46.752;23.576;2022-11-20T07:53:34;2.00;;;1.70;;
61356;SDS011;47227;46.752;23.576;2022-11-20T07:57:02;2.50;;;1.50;;
61356;SDS011;47227;46.752;23.576;2022-11-20T08:11:46;5.10;;;3.50;;
61356;SDS011;47227;46.752;23.576;2022-11-20T08:14:49;11.20;;;4.30;;
61356;SDS011;47227;46.752;23.576;2022-11-20T08:18:09;3.60;;;2.60;;
61356;SDS011;47227;46.752;23.576;2022-11-20T08:21:09;5.70;;;3.20;;
61356;SDS011;47227;46.752;23.576;2022-11-20T08:23:53;5.30;;;3.70;;
61356;SDS011;47227;46.752;23.576;2022-11-20T08:26:32;4.70;;;3.00;;
61356;SDS011;47227;46.752;23.576;2022-11-20T08:29:35;3.50;;;3.00;;
61356;SDS011;47227;46.752;23.576;2022-11-20T08:32:18;4.10;;;3.30;;
61356;SDS011;47227;46.752;23.576;2022-11-20T08:35:26;4.60;;;3.50;;
61356;SDS011;47227;46.752;23.576;2022-11-20T08:38:20;4.00;;;3.10;;
61356;SDS011;47227;46.752;23.576;2022-11-20T08:41:03;4.70;;;3.60;;
61356;SDS011;47227;46.752;23.576;2022-11-20T08:44:20;3.40;;;3.00;;
61356;SDS011;47227;46.752;23.576;2022-11-20T08:46:58;10.40;;;4.40;;
61356;SDS011;47227;46.752;23.576;2022-11-20T08:49:38;6.30;;;4.40;;
61356;SDS011;47227;46.752;23.576;2022-11-20T08:52:24;4.40;;;3.50;;
61356;SDS011;47227;46.752;23.576;2022-11-20T08:55:08;5.00;;;4.50;;
61356;SDS011;47227;46.752;23.576;2022-11-20T08:58:03;5.00;;;4.10;;
61356;SDS011;47227;46.752;23.576;2022-11-20T09:00:35;4.80;;;4.30;;
61356;SDS011;47227;46.752;23.576;2022-11-20T09:03:18;5.00;;;4.50;;
61356;SDS011;47227;46.752;23.576;2022-11-20T09:06:04;5.50;;;4.70;;
61356;SDS011;47227;46.752;23.576;2022-11-20T09:08:43;5.80;;;5.20;;
61356;SDS011;47227;46.752;23.576;2022-11-20T09:11:43;5.40;;;4.70;;
61356;SDS011;47227;46.752;23.576;2022-11-20T09:14:46;5.00;;;4.50;;
61356;SDS011;47227;46.752;23.576;2022-11-20T09:17:24;6.70;;;4.60;;
61356;SDS011;47227;46.752;23.576;2022-11-20T09:20:04;4.50;;;4.10;;
61356;SDS011;47227;46.752;23.576;2022-11-20T09:22:46;4.70;;;3.40;;
61356;SDS011;47227;46.752;23.576;2022-11-20T09:25:24;3.90;;;3.50;;
61356;SDS011;47227;46.752;23.576;2022-11-20T09:28:00;4.30;;;3.60;;
61356;SDS011;47227;46.752;23.576;2022-11-20T09:30:27;3.50;;;3.20;;
61356;SDS011;47227;46.752;23.576;2022-11-20T09:32:57;4.90;;;3.00;;
61356;SDS011;47227;46.752;23.576;2022-11-20T09:35:39;3.70;;;3.20;;
61356;SDS011;47227;46.752;23.576;2022-11-20T09:38:21;4.40;;;2.60;;
61356;SDS011;47227;46.752;23.576;2022-11-20T09:41:04;3.00;;;2.40;;
61356;SDS011;47227;46.752;23.576;2022-11-20T09:43:48;3.40;;;3.00;;
61356;SDS011;47227;46.752;23.576;2022-11-20T09:50:07;2.80;;;2.50;;
61356;SDS011;47227;46.752;23.576;2022-11-20T09:53:39;3.30;;;2.80;;
61356;SDS011;47227;46.752;23.576;2022-11-20T09:56:40;3.20;;;2.90;;
61356;SDS011;47227;46.752;23.576;2022-11-20T09:59:46;3.10;;;2.80;;
61356;SDS011;47227;46.752;23.576;2022-11-20T10:02:55;3.30;;;3.00;;
61356;SDS011;47227;46.752;23.576;2022-11-20T10:05:44;4.00;;;3.00;;
61356;SDS011;47227;46.752;23.576;2022-11-20T10:08:50;3.60;;;3.30;;
61356;SDS011;47227;46.752;23.576;2022-11-20T10:11:56;3.10;;;2.80;;
61356;SDS011;47227;46.752;23.576;2022-11-20T10:15:30;4.90;;;3.90;;
61356;SDS011;47227;46.752;23.576;2022-11-20T10:18:23;4.70;;;4.30;;
61356;SDS011;47227;46.752;23.576;2022-11-20T10:21:33;4.70;;;3.60;;
61356;SDS011;47227;46.752;23.576;2022-11-20T10:27:48;4.90;;;2.90;;
61356;SDS011;47227;46.752;23.576;2022-11-20T10:30:43;3.70;;;2.90;;
61356;SDS011;47227;46.752;23.576;2022-11-20T10:33:19;3.10;;;2.50;;
61356;SDS011;47227;46.752;23.576;2022-11-20T10:38:51;3.90;;;3.50;;
61356;SDS011;47227;46.752;23.576;2022-11-20T10:41:38;3.10;;;2.80;;
61356;SDS011;47227;46.752;23.576;2022-11-20T10:44:15;3.90;;;3.20;;
61356;SDS011;47227;46.752;23.576;2022-11-20T10:47:21;4.80;;;3.70;;
61356;SDS011;47227;46.752;23.576;2022-11-20T10:50:16;4.50;;;3.50;;
61356;SDS011;47227;46.752;23.576;2022-11-20T10:53:02;4.90;;;3.50;;
61356;SDS011;47227;46.752;23.576;2022-11-20T10:56:11;4.50;;;3.60;;
61356;SDS011;47227;46.752;23.576;2022-11-20T10:59:30;4.10;;;3.10;;
61356;SDS011;47227;46.752;23.576;2022-11-20T11:02:46;3.30;;;3.00;;
61356;SDS011;47227;46.752;23.576;2022-11-20T11:05:54;3.60;;;3.10;;
61356;SDS011;47227;46.752;23.576;2022-11-20T11:08:35;2.80;;;2.60;;
61356;SDS011;47227;46.752;23.576;2022-11-20T11:11:24;2.70;;;2.50;;
61356;SDS011;47227;46.752;23.576;2022-11-20T11:14:11;2.80;;;2.10;;
61356;SDS011;47227;46.752;23.576;2022-11-20T11:19:59;2.40;;;2.20;;
61356;SDS011;47227;46.752;23.576;2022-11-20T11:23:10;2.00;;;1.80;;
61356;SDS011;47227;46.752;23.576;2022-11-20T11:26:30;3.10;;;1.80;;
61356;SDS011;47227;46.752;23.576;2022-11-20T11:29:19;1.70;;;1.30;;
61356;SDS011;47227;46.752;23.576;2022-11-20T11:32:17;1.80;;;1.10;;
61356;SDS011;47227;46.752;23.576;2022-11-20T11:35:32;1.10;;;1.00;;
61356;SDS011;47227;46.752;23.576;2022-11-20T11:38:30;1.90;;;1.10;;
61356;SDS011;47227;46.752;23.576;2022-11-20T11:41:55;1.00;;;0.80;;
61356;SDS011;47227;46.752;23.576;2022-11-20T11:45:11;2.20;;;1.10;;
61356;SDS011;47227;46.752;23.576;2022-11-20T11:48:56;1.00;;;0.70;;
61356;SDS011;47227;46.752;23.576;2022-11-20T11:52:14;1.30;;;1.10;;
61356;SDS011;47227;46.752;23.576;2022-11-20T11:55:55;0.70;;;0.70;;
61356;SDS011;47227;46.752;23.576;2022-11-20T11:58:49;1.70;;;1.20;;
61356;SDS011;47227;46.752;23.576;2022-11-20T12:01:51;1.20;;;0.80;;
61356;SDS011;47227;46.752;23.576;2022-11-20T12:05:14;1.20;;;0.90;;
61356;SDS011;47227;46.752;23.576;2022-11-20T12:08:25;1.10;;;0.90;;
61356;SDS011;47227;46.752;23.576;2022-11-20T12:11:51;1.50;;;1.40;;
61356;SDS011;47227;46.752;23.576;2022-11-20T12:15:10;1.90;;;1.20;;
61356;SDS011;47227;46.752;23.576;2022-11-20T12:18:21;1.40;;;1.20;;
61356;SDS011;47227;46.752;23.576;2022-11-20T12:21:48;2.10;;;1.20;;
61356;SDS011;47227;46.752;23.576;2022-11-20T12:25:47;2.50;;;1.90;;
61356;SDS011;47227;46.752;23.576;2022-11-20T12:30:00;2.40;;;1.60;;
61356;SDS011;47227;46.752;23.576;2022-11-20T12:39:41;1.60;;;1.50;;
61356;SDS011;47227;46.752;23.576;2022-11-20T12:43:06;2.20;;;1.60;;
61356;SDS011;47227;46.752;23.576;2022-11-20T12:46:46;3.10;;;2.20;;
61356;SDS011;47227;46.752;23.576;2022-11-20T13:00:51;1.10;;;1.00;;
61356;SDS011;47227;46.752;23.576;2022-11-20T13:04:45;1.10;;;1.00;;
61356;SDS011;47227;46.752;23.576;2022-11-20T13:08:28;1.20;;;1.00;;
61356;SDS011;47227;46.752;23.576;2022-11-20T13:11:26;1.70;;;1.20;;
61356;SDS011;47227;46.752;23.576;2022-11-20T13:14:35;1.00;;;0.90;;
61356;SDS011;47227;46.752;23.576;2022-11-20T13:21:43;1.30;;;0.90;;
61356;SDS011;47227;46.752;23.576;2022-11-20T13:31:43;2.30;;;1.00;;
61356;SDS011;47227;46.752;23.576;2022-11-20T13:34:57;1.30;;;1.20;;
61356;SDS011;47227;46.752;23.576;2022-11-20T13:38:10;1.30;;;1.00;;
61356;SDS011;47227;46.752;23.576;2022-11-20T13:41:22;1.20;;;0.90;;
61356;SDS011;47227;46.752;23.576;2022-11-20T13:44:38;2.50;;;0.80;;
61356;SDS011;47227;46.752;23.576;2022-11-20T13:48:30;1.00;;;0.80;;
61356;SDS011;47227;46.752;23.576;2022-11-20T14:01:35;1.30;;;1.20;;
61356;SDS011;47227;46.752;23.576;2022-11-20T14:04:56;2.20;;;1.80;;
61356;SDS011;47227;46.752;23.576;2022-11-20T14:08:13;2.80;;;1.60;;
61356;SDS011;47227;46.752;23.576;2022-11-20T14:11:48;1.00;;;0.90;;
61356;SDS011;47227;46.752;23.576;2022-11-20T14:14:47;7.40;;;2.30;;
61356;SDS011;47227;46.752;23.576;2022-11-20T14:17:43;1.00;;;0.90;;
61356;SDS011;47227;46.752;23.576;2022-11-20T14:21:08;2.40;;;1.20;;
61356;SDS011;47227;46.752;23.576;2022-11-20T14:24:10;5.90;;;1.90;;
61356;SDS011;47227;46.752;23.576;2022-11-20T14:27:24;1.50;;;1.20;;
61356;SDS011;47227;46.752;23.576;2022-11-20T14:30:56;1.30;;;1.10;;
61356;SDS011;47227;46.752;23.576;2022-11-20T14:33:32;2.10;;;1.10;;
61356;SDS011;47227;46.752;23.576;2022-11-20T14:36:22;1.70;;;1.20;;
61356;SDS011;47227;46.752;23.576;2022-11-20T14:39:11;1.40;;;1.10;;
61356;SDS011;47227;46.752;23.576;2022-11-20T14:42:14;1.60;;;1.30;;
61356;SDS011;47227;46.752;23.576;2022-11-20T14:45:21;2.20;;;1.90;;
61356;SDS011;47227;46.752;23.576;2022-11-20T14:48:41;1.90;;;1.80;;
61356;SDS011;47227;46.752;23.576;2022-11-20T14:51:40;2.00;;;1.70;;
61356;SDS011;47227;46.752;23.576;2022-11-20T14:55:05;2.20;;;1.60;;
61356;SDS011;47227;46.752;23.576;2022-11-20T15:01:42;4.60;;;3.10;;
61356;SDS011;47227;46.752;23.576;2022-11-20T15:08:50;2.10;;;1.40;;
61356;SDS011;47227;46.752;23.576;2022-11-20T15:16:18;1.40;;;1.30;;
61356;SDS011;47227;46.752;23.576;2022-11-20T15:19:20;3.00;;;1.40;;
61356;SDS011;47227;46.752;23.576;2022-11-20T15:22:11;1.50;;;1.40;;
61356;SDS011;47227;46.752;23.576;2022-11-20T15:25:10;1.40;;;1.20;;
61356;SDS011;47227;46.752;23.576;2022-11-20T15:28:14;3.80;;;2.40;;
61356;SDS011;47227;46.752;23.576;2022-11-20T15:31:01;4.80;;;3.20;;
61356;SDS011;47227;46.752;23.576;2022-11-20T15:33:53;4.90;;;2.90;;
61356;SDS011;47227;46.752;23.576;2022-11-20T15:37:30;5.30;;;3.20;;
61356;SDS011;47227;46.752;23.576;2022-11-20T15:40:50;5.50;;;4.00;;
61356;SDS011;47227;46.752;23.576;2022-11-20T15:44:27;3.60;;;2.60;;
61356;SDS011;47227;46.752;23.576;2022-11-20T15:47:48;9.30;;;4.70;;
61356;SDS011;47227;46.752;23.576;2022-11-20T15:51:26;9.70;;;5.50;;
61356;SDS011;47227;46.752;23.576;2022-11-20T15:54:35;5.00;;;3.20;;
61356;SDS011;47227;46.752;23.576;2022-11-20T15:57:59;14.00;;;6.40;;
61356;SDS011;47227;46.752;23.576;2022-11-20T16:00:58;9.70;;;4.90;;
61356;SDS011;47227;46.752;23.576;2022-11-20T16:04:02;4.00;;;3.10;;
61356;SDS011;47227;46.752;23.576;2022-11-20T16:07:33;3.20;;;2.20;;
61356;SDS011;47227;46.752;23.576;2022-11-20T16:10:42;3.30;;;2.70;;
61356;SDS011;47227;46.752;23.576;2022-11-20T16:13:37;5.20;;;4.00;;
61356;SDS011;47227;46.752;23.576;2022-11-20T16:16:51;5.90;;;5.00;;
61356;SDS011;47227;46.752;23.576;2022-11-20T16:20:15;6.20;;;4.90;;
61356;SDS011;47227;46.752;23.576;2022-11-20T16:23:00;8.10;;;5.40;;
61356;SDS011;47227;46.752;23.576;2022-11-20T16:26:13;6.10;;;4.80;;
61356;SDS011;47227;46.752;23.576;2022-11-20T16:29:07;6.70;;;5.10;;
61356;SDS011;47227;46.752;23.576;2022-11-20T16:31:50;7.10;;;5.00;;
61356;SDS011;47227;46.752;23.576;2022-11-20T16:35:05;19.20;;;9.30;;
61356;SDS011;47227;46.752;23.576;2022-11-20T16:38:06;8.90;;;6.20;;
61356;SDS011;47227;46.752;23.576;2022-11-20T16:41:05;11.60;;;8.70;;
61356;SDS011;47227;46.752;23.576;2022-11-20T16:44:25;10.90;;;7.50;;
61356;SDS011;47227;46.752;23.576;2022-11-20T16:47:42;8.00;;;4.90;;
61356;SDS011;47227;46.752;23.576;2022-11-20T16:51:49;3.70;;;2.70;;
61356;SDS011;47227;46.752;23.576;2022-11-20T16:55:00;3.50;;;2.90;;
61356;SDS011;47227;46.752;23.576;2022-11-20T16:58:55;4.60;;;2.90;;
61356;SDS011;47227;46.752;23.576;2022-11-20T17:02:15;4.10;;;3.00;;
61356;SDS011;47227;46.752;23.576;2022-11-20T17:05:36;5.90;;;3.70;;
61356;SDS011;47227;46.752;23.576;2022-11-20T17:08:45;3.00;;;2.40;;
61356;SDS011;47227;46.752;23.576;2022-11-20T17:11:57;5.10;;;3.90;;
61356;SDS011;47227;46.752;23.576;2022-11-20T17:15:46;3.00;;;2.70;;
61356;SDS011;47227;46.752;23.576;2022-11-20T17:34:36;3.60;;;2.90;;
61356;SDS011;47227;46.752;23.576;2022-11-20T17:37:53;4.60;;;2.60;;
61356;SDS011;47227;46.752;23.576;2022-11-20T17:41:32;4.60;;;3.50;;
61356;SDS011;47227;46.752;23.576;2022-11-20T17:44:46;5.60;;;3.30;;
61356;SDS011;47227;46.752;23.576;2022-11-20T17:47:18;4.20;;;3.40;;
61356;SDS011;47227;46.752;23.576;2022-11-20T17:49:58;5.30;;;3.10;;
61356;SDS011;47227;46.752;23.576;2022-11-20T17:55:30;3.30;;;2.70;;
61356;SDS011;47227;46.752;23.576;2022-11-20T17:59:13;3.90;;;3.20;;
61356;SDS011;47227;46.752;23.576;2022-11-20T18:02:06;3.80;;;2.70;;
61356;SDS011;47227;46.752;23.576;2022-11-20T18:04:49;2.60;;;2.20;;
61356;SDS011;47227;46.752;23.576;2022-11-20T18:07:51;2.90;;;2.70;;
61356;SDS011;47227;46.752;23.576;2022-11-20T18:10:33;4.70;;;3.10;;
61356;SDS011;47227;46.752;23.576;2022-11-20T18:13:23;3.10;;;2.60;;
61356;SDS011;47227;46.752;23.576;2022-11-20T18:16:34;4.30;;;2.80;;
61356;SDS011;47227;46.752;23.576;2022-11-20T18:19:21;4.40;;;3.20;;
61356;SDS011;47227;46.752;23.576;2022-11-20T18:22:07;5.80;;;4.30;;
61356;SDS011;47227;46.752;23.576;2022-11-20T18:24:52;4.30;;;2.60;;
61356;SDS011;47227;46.752;23.576;2022-11-20T18:27:49;3.10;;;2.50;;
61356;SDS011;47227;46.752;23.576;2022-11-20T18:31:44;3.30;;;2.30;;
61356;SDS011;47227;46.752;23.576;2022-11-20T18:35:01;3.60;;;2.10;;
61356;SDS011;47227;46.752;23.576;2022-11-20T18:38:08;2.00;;;1.70;;
61356;SDS011;47227;46.752;23.576;2022-11-20T18:41:47;3.80;;;2.30;;
61356;SDS011;47227;46.752;23.576;2022-11-20T18:45:08;2.60;;;2.10;;
61356;SDS011;47227;46.752;23.576;2022-11-20T18:48:39;2.30;;;1.80;;
61356;SDS011;47227;46.752;23.576;2022-11-20T18:52:11;8.50;;;5.20;;
61356;SDS011;47227;46.752;23.576;2022-11-20T18:55:23;5.00;;;2.70;;
61356;SDS011;47227;46.752;23.576;2022-11-20T18:59:31;3.70;;;2.80;;
61356;SDS011;47227;46.752;23.576;2022-11-20T19:02:40;6.20;;;3.60;;
61356;SDS011;47227;46.752;23.576;2022-11-20T19:05:48;2.90;;;2.50;;
61356;SDS011;47227;46.752;23.576;2022-11-20T19:09:12;3.70;;;2.80;;
61356;SDS011;47227;46.752;23.576;2022-11-20T19:13:21;2.30;;;2.00;;
61356;SDS011;47227;46.752;23.576;2022-11-20T19:16:45;4.40;;;3.30;;
61356;SDS011;47227;46.752;23.576;2022-11-20T19:20:00;10.00;;;4.10;;
61356;SDS011;47227;46.752;23.576;2022-11-20T19:23:16;5.10;;;3.80;;
61356;SDS011;47227;46.752;23.576;2022-11-20T19:26:07;5.50;;;3.50;;
61356;SDS011;47227;46.752;23.576;2022-11-20T19:29:55;5.20;;;3.10;;
61356;SDS011;47227;46.752;23.576;2022-11-20T19:34:32;9.30;;;5.10;;
61356;SDS011;47227;46.752;23.576;2022-11-20T19:38:24;8.70;;;5.60;;
61356;SDS011;47227;46.752;23.576;2022-11-20T19:41:56;4.50;;;3.40;;
61356;SDS011;47227;46.752;23.576;2022-11-20T19:45:26;4.10;;;3.70;;
61356;SDS011;47227;46.752;23.576;2022-11-20T19:53:00;3.00;;;2.40;;
61356;SDS011;47227;46.752;23.576;2022-11-20T20:05:14;2.90;;;2.30;;
61356;SDS011;47227;46.752;23.576;2022-11-20T20:08:46;2.90;;;2.60;;
61356;SDS011;47227;46.752;23.576;2022-11-20T20:12:11;3.40;;;2.70;;
61356;SDS011;47227;46.752;23.576;2022-11-20T20:15:39;3.20;;;2.40;;
61356;SDS011;47227;46.752;23.576;2022-11-20T20:29:47;4.20;;;3.80;;
61356;SDS011;47227;46.752;23.576;2022-11-20T20:32:16;4.90;;;4.20;;
61356;SDS011;47227;46.752;23.576;2022-11-20T20:34:43;5.10;;;3.30;;
61356;SDS011;47227;46.752;23.576;2022-11-20T20:37:11;5.40;;;3.50;;
61356;SDS011;47227;46.752;23.576;2022-11-20T20:39:39;8.60;;;4.60;;
61356;SDS011;47227;46.752;23.576;2022-11-20T20:42:07;8.30;;;4.70;;
61356;SDS011;47227;46.752;23.576;2022-11-20T20:44:35;13.90;;;6.40;;
61356;SDS011;47227;46.752;23.576;2022-11-20T20:47:15;6.50;;;4.30;;
61356;SDS011;47227;46.752;23.576;2022-11-20T20:49:42;4.40;;;3.50;;
61356;SDS011;47227;46.752;23.576;2022-11-20T20:52:10;3.30;;;2.80;;
61356;SDS011;47227;46.752;23.576;2022-11-20T20:54:38;3.10;;;2.70;;
61356;SDS011;47227;46.752;23.576;2022-11-20T20:57:08;4.70;;;2.90;;
61356;SDS011;47227;46.752;23.576;2022-11-20T20:59:36;4.80;;;2.80;;
61356;SDS011;47227;46.752;23.576;2022-11-20T21:02:04;8.10;;;3.80;;
61356;SDS011;47227;46.752;23.576;2022-11-20T21:04:32;7.20;;;3.10;;
61356;SDS011;47227;46.752;23.576;2022-11-20T21:07:00;2.50;;;2.20;;
61356;SDS011;47227;46.752;23.576;2022-11-20T21:09:28;3.30;;;2.10;;
61356;SDS011;47227;46.752;23.576;2022-11-20T21:11:56;4.30;;;2.60;;
61356;SDS011;47227;46.752;23.576;2022-11-20T21:14:23;2.50;;;1.90;;
61356;SDS011;47227;46.752;23.576;2022-11-20T21:16:52;3.90;;;3.20;;
61356;SDS011;47227;46.752;23.576;2022-11-20T21:19:20;2.90;;;2.00;;
61356;SDS011;47227;46.752;23.576;2022-11-20T21:21:48;2.60;;;2.10;;
61356;SDS011;47227;46.752;23.576;2022-11-20T21:24:29;3.20;;;1.90;;
61356;SDS011;47227;46.752;23.576;2022-11-20T21:26:59;2.30;;;2.10;;
61356;SDS011;47227;46.752;23.576;2022-11-20T21:29:28;5.10;;;2.40;;
61356;SDS011;47227;46.752;23.576;2022-11-20T21:31:57;4.20;;;2.80;;
61356;SDS011;47227;46.752;23.576;2022-11-20T21:34:25;3.60;;;3.20;;
61356;SDS011;47227;46.752;23.576;2022-11-20T21:36:53;4.00;;;3.00;;
61356;SDS011;47227;46.752;23.576;2022-11-20T21:43:11;3.40;;;3.10;;
61356;SDS011;47227;46.752;23.576;2022-11-20T22:33:29;13.20;;;6.50;;
61356;SDS011;47227;46.752;23.576;2022-11-20T22:36:52;5.90;;;3.70;;
61356;SDS011;47227;46.752;23.576;2022-11-20T22:40:41;10.70;;;4.10;;
61356;SDS011;47227;46.752;23.576;2022-11-20T22:44:45;4.50;;;3.80;;